sensor_id;sensor_type;location;lat;lon;timestamp;pressure;altitude;pressure_sealevel;temperature;humidity
76321;BME280;65132;52.088;5.402;2023-09-19T00:01:27;100729.38;;;14.19;100.00
76321;BME280;65132;52.088;5.402;2023-09-19T00:04:07;100740.44;;;14.18;100.00
76321;BME280;65132;52.088;5.402;2023-09-19T00:06:41;100732.94;;;14.12;100.00
76321;BME280;65132;52.088;5.402;2023-09-19T00:09:18;100745.00;;;14.17;100.00
76321;BME280;65132;52.088;5.402;2023-09-19T00:11:58;100746.53;;;14.12;100.00
76321;BME280;65132;52.088;5.402;2023-09-19T00:14:32;100753.00;;;14.11;100.00
76321;BME280;65132;52.088;5.402;2023-09-19T00:17:05;100744.69;;;14.04;100.00
76321;BME280;65132;52.088;5.402;2023-09-19T00:19:48;100748.25;;;14.13;100.00
76321;BME280;65132;52.088;5.402;2023-09-19T00:22:15;100742.97;;;14.19;100.00
76321;BME280;65132;52.088;5.402;2023-09-19T00:25:10;100751.97;;;14.20;100.00
76321;BME280;65132;52.088;5.402;2023-09-19T00:27:40;100744.84;;;14.19;100.00
76321;BME280;65132;52.088;5.402;2023-09-19T00:30:18;100750.44;;;14.17;100.00
76321;BME280;65132;52.088;5.402;2023-09-19T00:32:48;100759.66;;;14.16;100.00
76321;BME280;65132;52.088;5.402;2023-09-19T00:35:17;100758.44;;;14.11;100.00
76321;BME280;65132;52.088;5.402;2023-09-19T00:37:44;100752.16;;;14.10;100.00
76321;BME280;65132;52.088;5.402;2023-09-19T00:40:11;100757.25;;;14.13;100.00
76321;BME280;65132;52.088;5.402;2023-09-19T00:42:39;100749.06;;;14.13;100.00
76321;BME280;65132;52.088;5.402;2023-09-19T00:45:10;100761.69;;;14.14;100.00
76321;BME280;65132;52.088;5.402;2023-09-19T00:47:44;100756.75;;;14.18;100.00
76321;BME280;65132;52.088;5.402;2023-09-19T00:50:12;100760.13;;;14.20;100.00
76321;BME280;65132;52.088;5.402;2023-09-19T00:52:42;100765.09;;;14.24;100.00
76321;BME280;65132;52.088;5.402;2023-09-19T00:55:10;100763.91;;;14.27;100.00
76321;BME280;65132;52.088;5.402;2023-09-19T00:57:40;100761.50;;;14.24;100.00
76321;BME280;65132;52.088;5.402;2023-09-19T01:00:12;100769.53;;;14.25;100.00
76321;BME280;65132;52.088;5.402;2023-09-19T01:02:38;100775.66;;;14.27;100.00
76321;BME280;65132;52.088;5.402;2023-09-19T01:05:08;100780.94;;;14.29;100.00
76321;BME280;65132;52.088;5.402;2023-09-19T01:07:41;100778.38;;;14.35;100.00
76321;BME280;65132;52.088;5.402;2023-09-19T01:10:11;100776.69;;;14.34;100.00
76321;BME280;65132;52.088;5.402;2023-09-19T01:18:35;100779.06;;;14.37;100.00
76321;BME280;65132;52.088;5.402;2023-09-19T01:21:26;100774.81;;;14.43;100.00
76321;BME280;65132;52.088;5.402;2023-09-19T01:30:11;100786.22;;;14.55;100.00
76321;BME280;65132;52.088;5.402;2023-09-19T01:32:40;100781.97;;;14.52;100.00
76321;BME280;65132;52.088;5.402;2023-09-19T01:35:21;100783.16;;;14.50;100.00
76321;BME280;65132;52.088;5.402;2023-09-19T01:37:50;100781.81;;;14.54;100.00
76321;BME280;65132;52.088;5.402;2023-09-19T01:40:21;100777.03;;;14.56;100.00
76321;BME280;65132;52.088;5.402;2023-09-19T01:42:58;100785.69;;;14.51;100.00
76321;BME280;65132;52.088;5.402;2023-09-19T01:48:43;100789.63;;;14.49;100.00
76321;BME280;65132;52.088;5.402;2023-09-19T01:51:46;100786.56;;;14.44;100.00
76321;BME280;65132;52.088;5.402;2023-09-19T01:54:24;100789.28;;;14.44;100.00
76321;BME280;65132;52.088;5.402;2023-09-19T01:59:48;100788.94;;;14.47;100.00
76321;BME280;65132;52.088;5.402;2023-09-19T02:02:21;100792.03;;;14.44;100.00
76321;BME280;65132;52.088;5.402;2023-09-19T02:04:54;100787.91;;;14.39;100.00
76321;BME280;65132;52.088;5.402;2023-09-19T02:07:24;100794.88;;;14.34;100.00
76321;BME280;65132;52.088;5.402;2023-09-19T02:10:00;100795.94;;;14.33;100.00
76321;BME280;65132;52.088;5.402;2023-09-19T02:12:27;100799.16;;;14.36;100.00
76321;BME280;65132;52.088;5.402;2023-09-19T02:14:56;100787.25;;;14.29;100.00
76321;BME280;65132;52.088;5.402;2023-09-19T02:17:25;100795.94;;;14.33;100.00
76321;BME280;65132;52.088;5.402;2023-09-19T02:19:55;100783.66;;;14.29;100.00
76321;BME280;65132;52.088;5.402;2023-09-19T02:22:26;100780.41;;;14.17;100.00
76321;BME280;65132;52.088;5.402;2023-09-19T02:24:53;100786.34;;;14.13;100.00
76321;BME280;65132;52.088;5.402;2023-09-19T02:27:27;100790.94;;;14.04;100.00
76321;BME280;65132;52.088;5.402;2023-09-19T02:29:58;100796.69;;;14.01;100.00
76321;BME280;65132;52.088;5.402;2023-09-19T02:32:32;100798.59;;;14.01;100.00
76321;BME280;65132;52.088;5.402;2023-09-19T02:35:00;100802.31;;;14.00;100.00
76321;BME280;65132;52.088;5.402;2023-09-19T02:37:31;100796.50;;;13.95;100.00
76321;BME280;65132;52.088;5.402;2023-09-19T02:39:58;100806.88;;;13.91;100.00
76321;BME280;65132;52.088;5.402;2023-09-19T02:42:26;100806.03;;;13.91;100.00
76321;BME280;65132;52.088;5.402;2023-09-19T02:44:53;100807.38;;;13.87;100.00
76321;BME280;65132;52.088;5.402;2023-09-19T02:47:19;100807.19;;;13.80;100.00
76321;BME280;65132;52.088;5.402;2023-09-19T02:49:46;100817.06;;;13.81;100.00
76321;BME280;65132;52.088;5.402;2023-09-19T02:52:16;100810.75;;;13.73;100.00
76321;BME280;65132;52.088;5.402;2023-09-19T02:54:45;100813.28;;;13.66;100.00
76321;BME280;65132;52.088;5.402;2023-09-19T02:57:23;100806.25;;;13.56;100.00
76321;BME280;65132;52.088;5.402;2023-09-19T02:59:57;100802.31;;;13.50;100.00
76321;BME280;65132;52.088;5.402;2023-09-19T03:02:34;100800.97;;;13.46;100.00
76321;BME280;65132;52.088;5.402;2023-09-19T03:05:08;100807.41;;;13.45;100.00
76321;BME280;65132;52.088;5.402;2023-09-19T03:07:52;100814.03;;;13.43;100.00
76321;BME280;65132;52.088;5.402;2023-09-19T03:10:23;100806.38;;;13.38;100.00
76321;BME280;65132;52.088;5.402;2023-09-19T03:12:57;100805.69;;;13.36;100.00
76321;BME280;65132;52.088;5.402;2023-09-19T03:15:41;100807.03;;;13.40;100.00
76321;BME280;65132;52.088;5.402;2023-09-19T03:18:07;100797.69;;;13.35;100.00
76321;BME280;65132;52.088;5.402;2023-09-19T03:20:36;100801.38;;;13.26;100.00
76321;BME280;65132;52.088;5.402;2023-09-19T03:23:02;100807.81;;;13.24;100.00
76321;BME280;65132;52.088;5.402;2023-09-19T03:25:29;100809.16;;;13.20;100.00
76321;BME280;65132;52.088;5.402;2023-09-19T03:27:59;100800.66;;;13.15;100.00
76321;BME280;65132;52.088;5.402;2023-09-19T03:30:26;100803.00;;;13.10;100.00
76321;BME280;65132;52.088;5.402;2023-09-19T03:33:00;100809.75;;;13.06;100.00
76321;BME280;65132;52.088;5.402;2023-09-19T03:35:30;100813.66;;;13.04;100.00
76321;BME280;65132;52.088;5.402;2023-09-19T03:38:00;100812.13;;;13.01;100.00
76321;BME280;65132;52.088;5.402;2023-09-19T03:40:33;100807.53;;;13.02;100.00
76321;BME280;65132;52.088;5.402;2023-09-19T03:43:03;100797.09;;;12.97;100.00
76321;BME280;65132;52.088;5.402;2023-09-19T03:45:33;100802.09;;;13.02;100.00
76321;BME280;65132;52.088;5.402;2023-09-19T03:48:10;100803.22;;;12.99;100.00
76321;BME280;65132;52.088;5.402;2023-09-19T03:50:45;100790.31;;;12.93;100.00
76321;BME280;65132;52.088;5.402;2023-09-19T03:53:11;100796.06;;;12.90;100.00
76321;BME280;65132;52.088;5.402;2023-09-19T03:55:37;100804.22;;;12.90;100.00
76321;BME280;65132;52.088;5.402;2023-09-19T03:58:06;100802.50;;;12.89;100.00
76321;BME280;65132;52.088;5.402;2023-09-19T04:00:37;100797.25;;;12.96;100.00
76321;BME280;65132;52.088;5.402;2023-09-19T04:03:23;100804.22;;;12.90;100.00
76321;BME280;65132;52.088;5.402;2023-09-19T04:05:55;100812.41;;;12.98;100.00
76321;BME280;65132;52.088;5.402;2023-09-19T04:08:29;100807.31;;;12.95;100.00
76321;BME280;65132;52.088;5.402;2023-09-19T04:10:58;100822.38;;;12.90;100.00
76321;BME280;65132;52.088;5.402;2023-09-19T04:13:27;100833.06;;;12.91;100.00
76321;BME280;65132;52.088;5.402;2023-09-19T04:16:01;100829.31;;;12.92;100.00
76321;BME280;65132;52.088;5.402;2023-09-19T04:18:34;100839.66;;;12.89;100.00
76321;BME280;65132;52.088;5.402;2023-09-19T04:21:01;100829.66;;;12.89;100.00
76321;BME280;65132;52.088;5.402;2023-09-19T04:23:27;100843.94;;;12.91;100.00
76321;BME280;65132;52.088;5.402;2023-09-19T04:25:57;100843.25;;;12.89;100.00
76321;BME280;65132;52.088;5.402;2023-09-19T04:28:27;100861.09;;;12.92;100.00
76321;BME280;65132;52.088;5.402;2023-09-19T04:31:06;100851.72;;;12.86;100.00
76321;BME280;65132;52.088;5.402;2023-09-19T04:33:32;100853.72;;;12.84;100.00
76321;BME280;65132;52.088;5.402;2023-09-19T04:35:59;100862.09;;;12.91;100.00
76321;BME280;65132;52.088;5.402;2023-09-19T04:38:47;100865.34;;;12.94;100.00
76321;BME280;65132;52.088;5.402;2023-09-19T04:41:14;100883.91;;;12.99;100.00
76321;BME280;65132;52.088;5.402;2023-09-19T04:43:44;100888.56;;;13.06;100.00
76321;BME280;65132;52.088;5.402;2023-09-19T04:46:11;100884.16;;;13.05;100.00
76321;BME280;65132;52.088;5.402;2023-09-19T04:48:37;100881.84;;;13.01;100.00
76321;BME280;65132;52.088;5.402;2023-09-19T04:51:06;100879.63;;;12.96;100.00
76321;BME280;65132;52.088;5.402;2023-09-19T04:53:35;100878.75;;;12.96;100.00
76321;BME280;65132;52.088;5.402;2023-09-19T04:56:05;100878.75;;;12.96;100.00
76321;BME280;65132;52.088;5.402;2023-09-19T04:58:31;100869.09;;;12.93;100.00
76321;BME280;65132;52.088;5.402;2023-09-19T05:01:02;100866.38;;;12.93;100.00
76321;BME280;65132;52.088;5.402;2023-09-19T05:03:33;100867.59;;;12.99;100.00
76321;BME280;65132;52.088;5.402;2023-09-19T05:06:05;100866.53;;;12.92;100.00
76321;BME280;65132;52.088;5.402;2023-09-19T05:08:33;100874.03;;;12.98;100.00
76321;BME280;65132;52.088;5.402;2023-09-19T05:11:02;100872.25;;;12.89;100.00
76321;BME280;65132;52.088;5.402;2023-09-19T05:13:28;100874.75;;;12.82;100.00
76321;BME280;65132;52.088;5.402;2023-09-19T05:15:55;100872.94;;;12.91;100.00
76321;BME280;65132;52.088;5.402;2023-09-19T05:18:26;100876.63;;;12.82;100.00
76321;BME280;65132;52.088;5.402;2023-09-19T05:21:02;100886.00;;;12.87;100.00
76321;BME280;65132;52.088;5.402;2023-09-19T05:23:28;100874.75;;;12.82;100.00
76321;BME280;65132;52.088;5.402;2023-09-19T05:25:55;100874.59;;;12.84;100.00
76321;BME280;65132;52.088;5.402;2023-09-19T05:28:21;100864.59;;;12.84;100.00
76321;BME280;65132;52.088;5.402;2023-09-19T05:30:48;100878.53;;;12.89;100.00
76321;BME280;65132;52.088;5.402;2023-09-19T05:33:18;100867.91;;;12.96;100.00
76321;BME280;65132;52.088;5.402;2023-09-19T05:35:48;100877.31;;;13.01;100.00
76321;BME280;65132;52.088;5.402;2023-09-19T05:38:24;100874.88;;;13.16;100.00
76321;BME280;65132;52.088;5.402;2023-09-19T05:40:56;100876.91;;;13.14;100.00
76321;BME280;65132;52.088;5.402;2023-09-19T05:43:26;100875.56;;;13.18;100.00
76321;BME280;65132;52.088;5.402;2023-09-19T05:45:59;100871.13;;;13.17;100.00
76321;BME280;65132;52.088;5.402;2023-09-19T05:48:28;100873.16;;;13.15;100.00
76321;BME280;65132;52.088;5.402;2023-09-19T05:50:57;100875.72;;;13.16;100.00
76321;BME280;65132;52.088;5.402;2023-09-19T05:53:29;100871.84;;;13.19;100.00
76321;BME280;65132;52.088;5.402;2023-09-19T05:55:59;100883.03;;;13.16;100.00
76321;BME280;65132;52.088;5.402;2023-09-19T05:58:26;100886.41;;;13.18;100.00
76321;BME280;65132;52.088;5.402;2023-09-19T06:00:53;100885.59;;;13.17;100.00
76321;BME280;65132;52.088;5.402;2023-09-19T06:03:22;100888.97;;;13.19;100.00
76321;BME280;65132;52.088;5.402;2023-09-19T06:05:59;100889.66;;;13.21;100.00
76321;BME280;65132;52.088;5.402;2023-09-19T06:08:28;100889.06;;;13.28;100.00
76321;BME280;65132;52.088;5.402;2023-09-19T06:11:12;100901.00;;;13.35;100.00
76321;BME280;65132;52.088;5.402;2023-09-19T06:13:41;100902.19;;;13.40;100.00
76321;BME280;65132;52.088;5.402;2023-09-19T06:16:14;100910.03;;;13.43;100.00
76321;BME280;65132;52.088;5.402;2023-09-19T06:18:44;100916.63;;;13.41;100.00
76321;BME280;65132;52.088;5.402;2023-09-19T06:21:13;100913.22;;;13.39;100.00
76321;BME280;65132;52.088;5.402;2023-09-19T06:23:39;100909.19;;;13.43;100.00
76321;BME280;65132;52.088;5.402;2023-09-19T06:26:10;100914.50;;;13.52;100.00
76321;BME280;65132;52.088;5.402;2023-09-19T06:28:37;100919.84;;;13.62;100.00
76321;BME280;65132;52.088;5.402;2023-09-19T06:31:06;100918.00;;;13.70;100.00
76321;BME280;65132;52.088;5.402;2023-09-19T06:33:38;100906.28;;;13.70;100.00
76321;BME280;65132;52.088;5.402;2023-09-19T06:36:06;100905.06;;;13.72;100.00
76321;BME280;65132;52.088;5.402;2023-09-19T06:38:34;100896.97;;;13.80;100.00
76321;BME280;65132;52.088;5.402;2023-09-19T06:41:00;100906.81;;;13.81;100.00
76321;BME280;65132;52.088;5.402;2023-09-19T06:43:28;100905.31;;;13.87;100.00
76321;BME280;65132;52.088;5.402;2023-09-19T06:45:55;100900.94;;;13.94;100.00
76321;BME280;65132;52.088;5.402;2023-09-19T06:48:24;100908.25;;;13.93;100.00
76321;BME280;65132;52.088;5.402;2023-09-19T06:50:56;100903.34;;;14.05;100.00
76321;BME280;65132;52.088;5.402;2023-09-19T06:53:26;100903.22;;;14.14;100.00
76321;BME280;65132;52.088;5.402;2023-09-19T06:55:52;100896.75;;;14.15;100.00
76321;BME280;65132;52.088;5.402;2023-09-19T06:58:19;100904.09;;;14.23;100.00
76321;BME280;65132;52.088;5.402;2023-09-19T07:00:48;100901.75;;;14.28;100.00
76321;BME280;65132;52.088;5.402;2023-09-19T07:03:16;100906.03;;;14.38;100.00
76321;BME280;65132;52.088;5.402;2023-09-19T07:05:43;100895.16;;;14.38;100.00
76321;BME280;65132;52.088;5.402;2023-09-19T07:08:14;100888.66;;;14.48;100.00
76321;BME280;65132;52.088;5.402;2023-09-19T07:10:41;100901.97;;;14.59;100.00
76321;BME280;65132;52.088;5.402;2023-09-19T07:13:11;100897.03;;;14.62;100.00
76321;BME280;65132;52.088;5.402;2023-09-19T07:15:38;100896.00;;;14.71;100.00
76321;BME280;65132;52.088;5.402;2023-09-19T07:18:06;100900.97;;;14.76;100.00
76321;BME280;65132;52.088;5.402;2023-09-19T07:20:32;100912.03;;;14.90;100.00
76321;BME280;65132;52.088;5.402;2023-09-19T07:23:05;100916.78;;;14.88;100.00
76321;BME280;65132;52.088;5.402;2023-09-19T07:25:31;100914.09;;;14.96;100.00
76321;BME280;65132;52.088;5.402;2023-09-19T07:27:59;100924.63;;;15.07;100.00
76321;BME280;65132;52.088;5.402;2023-09-19T07:30:31;100919.34;;;15.22;100.00
76321;BME280;65132;52.088;5.402;2023-09-19T07:33:00;100922.56;;;15.33;100.00
76321;BME280;65132;52.088;5.402;2023-09-19T07:35:29;100920.88;;;15.40;100.00
76321;BME280;65132;52.088;5.402;2023-09-19T07:38:06;100933.81;;;15.30;100.00
76321;BME280;65132;52.088;5.402;2023-09-19T07:40:35;100927.31;;;15.55;100.00
76321;BME280;65132;52.088;5.402;2023-09-19T07:43:02;100931.22;;;15.69;100.00
76321;BME280;65132;52.088;5.402;2023-09-19T07:45:28;100929.34;;;15.62;100.00
76321;BME280;65132;52.088;5.402;2023-09-19T07:47:58;100939.00;;;15.80;100.00
76321;BME280;65132;52.088;5.402;2023-09-19T07:50:26;100920.97;;;15.71;100.00
76321;BME280;65132;52.088;5.402;2023-09-19T07:52:57;100938.22;;;16.10;100.00
76321;BME280;65132;52.088;5.402;2023-09-19T07:55:23;100929.44;;;15.84;100.00
76321;BME280;65132;52.088;5.402;2023-09-19T07:57:52;100936.22;;;15.96;100.00
76321;BME280;65132;52.088;5.402;2023-09-19T08:00:18;100940.47;;;15.99;100.00
76321;BME280;65132;52.088;5.402;2023-09-19T08:02:45;100937.81;;;16.21;100.00
76321;BME280;65132;52.088;5.402;2023-09-19T08:05:16;100930.53;;;16.06;100.00
76321;BME280;65132;52.088;5.402;2023-09-19T08:07:47;100935.81;;;16.07;100.00
76321;BME280;65132;52.088;5.402;2023-09-19T08:10:14;100934.09;;;16.45;100.00
76321;BME280;65132;52.088;5.402;2023-09-19T08:12:46;100937.00;;;16.43;100.00
76321;BME280;65132;52.088;5.402;2023-09-19T08:15:19;100940.78;;;16.42;100.00
76321;BME280;65132;52.088;5.402;2023-09-19T08:17:53;100942.81;;;16.48;100.00
76321;BME280;65132;52.088;5.402;2023-09-19T08:20:20;100942.25;;;16.61;100.00
76321;BME280;65132;52.088;5.402;2023-09-19T08:22:50;100939.00;;;16.57;100.00
76321;BME280;65132;52.088;5.402;2023-09-19T08:25:17;100936.78;;;16.61;100.00
76321;BME280;65132;52.088;5.402;2023-09-19T08:27:48;100951.88;;;16.49;100.00
76321;BME280;65132;52.088;5.402;2023-09-19T08:30:18;100919.31;;;16.39;100.00
76321;BME280;65132;52.088;5.402;2023-09-19T08:32:46;100935.72;;;16.62;100.00
76321;BME280;65132;52.088;5.402;2023-09-19T08:35:13;100927.44;;;16.78;100.00
76321;BME280;65132;52.088;5.402;2023-09-19T08:37:48;100938.53;;;16.77;100.00
76321;BME280;65132;52.088;5.402;2023-09-19T08:40:15;100921.97;;;16.78;100.00
76321;BME280;65132;52.088;5.402;2023-09-19T08:42:54;100932.03;;;16.77;100.00
76321;BME280;65132;52.088;5.402;2023-09-19T08:45:24;100920.44;;;16.98;100.00
76321;BME280;65132;52.088;5.402;2023-09-19T08:48:03;100932.53;;;16.81;100.00
76321;BME280;65132;52.088;5.402;2023-09-19T08:50:36;100925.69;;;17.37;100.00
76321;BME280;65132;52.088;5.402;2023-09-19T08:53:15;100934.69;;;17.08;100.00
76321;BME280;65132;52.088;5.402;2023-09-19T08:55:46;100925.78;;;17.14;100.00
76321;BME280;65132;52.088;5.402;2023-09-19T08:58:19;100915.03;;;17.13;100.00
76321;BME280;65132;52.088;5.402;2023-09-19T09:00:54;100916.19;;;17.33;100.00
76321;BME280;65132;52.088;5.402;2023-09-19T09:03:32;100926.66;;;17.29;100.00
76321;BME280;65132;52.088;5.402;2023-09-19T09:06:01;100924.06;;;17.50;100.00
76321;BME280;65132;52.088;5.402;2023-09-19T09:08:39;100926.66;;;17.29;100.00
76321;BME280;65132;52.088;5.402;2023-09-19T09:11:08;100934.19;;;17.42;100.00
76321;BME280;65132;52.088;5.402;2023-09-19T09:13:36;100962.88;;;17.31;100.00
76321;BME280;65132;52.088;5.402;2023-09-19T09:16:02;100934.03;;;17.43;100.00
76321;BME280;65132;52.088;5.402;2023-09-19T09:18:29;100923.63;;;17.90;100.00
76321;BME280;65132;52.088;5.402;2023-09-19T09:21:03;100915.41;;;17.24;100.00
76321;BME280;65132;52.088;5.402;2023-09-19T09:23:32;100934.81;;;17.15;100.00
76321;BME280;65132;52.088;5.402;2023-09-19T09:25:59;100910.84;;;17.17;100.00
76321;BME280;65132;52.088;5.402;2023-09-19T09:28:44;100921.50;;;17.49;100.00
76321;BME280;65132;52.088;5.402;2023-09-19T09:31:24;100909.75;;;17.40;100.00
76321;BME280;65132;52.088;5.402;2023-09-19T09:33:57;100916.44;;;18.04;98.93
76321;BME280;65132;52.088;5.402;2023-09-19T09:36:35;100911.19;;;18.24;98.20
76321;BME280;65132;52.088;5.402;2023-09-19T09:39:02;100912.00;;;18.53;97.63
76321;BME280;65132;52.088;5.402;2023-09-19T09:41:37;100912.31;;;18.65;96.12
76321;BME280;65132;52.088;5.402;2023-09-19T09:44:19;100904.47;;;18.26;97.52
76321;BME280;65132;52.088;5.402;2023-09-19T09:46:51;100896.34;;;18.33;99.60
76321;BME280;65132;52.088;5.402;2023-09-19T09:49:27;100940.75;;;18.78;92.81
76321;BME280;65132;52.088;5.402;2023-09-19T09:52:07;100898.28;;;19.17;92.71
76321;BME280;65132;52.088;5.402;2023-09-19T09:54:38;100899.34;;;19.71;91.90
76321;BME280;65132;52.088;5.402;2023-09-19T09:57:08;100892.00;;;20.18;86.11
76321;BME280;65132;52.088;5.402;2023-09-19T10:02:16;100897.81;;;19.34;88.86
76321;BME280;65132;52.088;5.402;2023-09-19T10:04:43;100895.84;;;19.83;87.97
76321;BME280;65132;52.088;5.402;2023-09-19T10:07:29;100902.75;;;19.45;87.52
76321;BME280;65132;52.088;5.402;2023-09-19T10:09:56;100897.66;;;19.42;90.58
76321;BME280;65132;52.088;5.402;2023-09-19T10:12:31;100887.72;;;19.41;90.02
76321;BME280;65132;52.088;5.402;2023-09-19T10:15:00;100910.97;;;18.75;93.04
76321;BME280;65132;52.088;5.402;2023-09-19T10:17:31;100912.75;;;18.83;94.87
76321;BME280;65132;52.088;5.402;2023-09-19T10:20:03;100918.13;;;18.55;92.82
76321;BME280;65132;52.088;5.402;2023-09-19T10:22:31;100913.63;;;18.33;95.85
76321;BME280;65132;52.088;5.402;2023-09-19T10:25:02;100890.59;;;18.28;94.56
76321;BME280;65132;52.088;5.402;2023-09-19T10:27:33;100897.97;;;18.42;95.22
76321;BME280;65132;52.088;5.402;2023-09-19T10:30:02;100888.81;;;18.56;93.26
76321;BME280;65132;52.088;5.402;2023-09-19T10:32:42;100890.69;;;19.19;92.52
76321;BME280;65132;52.088;5.402;2023-09-19T10:35:11;100883.38;;;19.53;89.66
76321;BME280;65132;52.088;5.402;2023-09-19T10:37:38;100881.91;;;19.91;86.90
76321;BME280;65132;52.088;5.402;2023-09-19T10:40:07;100877.53;;;20.03;86.41
76321;BME280;65132;52.088;5.402;2023-09-19T10:42:38;100873.06;;;20.02;84.27
76321;BME280;65132;52.088;5.402;2023-09-19T10:45:08;100872.59;;;19.52;87.12
76321;BME280;65132;52.088;5.402;2023-09-19T10:47:46;100860.75;;;19.51;86.50
76321;BME280;65132;52.088;5.402;2023-09-19T10:50:24;100863.22;;;19.74;85.70
76321;BME280;65132;52.088;5.402;2023-09-19T10:52:55;100847.56;;;19.34;88.31
76321;BME280;65132;52.088;5.402;2023-09-19T10:55:27;100851.78;;;19.36;88.25
76321;BME280;65132;52.088;5.402;2023-09-19T10:57:54;100859.91;;;19.23;89.10
76321;BME280;65132;52.088;5.402;2023-09-19T11:00:24;100858.13;;;19.71;88.56
76321;BME280;65132;52.088;5.402;2023-09-19T11:05:41;100848.19;;;20.10;86.00
76321;BME280;65132;52.088;5.402;2023-09-19T11:08:11;100838.00;;;21.23;83.87
76321;BME280;65132;52.088;5.402;2023-09-19T11:10:50;100840.66;;;20.26;84.38
76321;BME280;65132;52.088;5.402;2023-09-19T11:13:25;100834.91;;;19.73;86.22
76321;BME280;65132;52.088;5.402;2023-09-19T11:16:04;100850.22;;;19.55;85.94
76321;BME280;65132;52.088;5.402;2023-09-19T11:26:42;100831.47;;;21.18;81.39
76321;BME280;65132;52.088;5.402;2023-09-19T11:29:30;100836.97;;;20.98;80.23
76321;BME280;65132;52.088;5.402;2023-09-19T11:32:07;100824.63;;;20.42;83.65
76321;BME280;65132;52.088;5.402;2023-09-19T11:40:05;100831.41;;;19.24;86.49
76321;BME280;65132;52.088;5.402;2023-09-19T11:48:10;100816.72;;;20.19;83.69
76321;BME280;65132;52.088;5.402;2023-09-19T11:50:39;100819.00;;;20.09;81.27
76321;BME280;65132;52.088;5.402;2023-09-19T11:53:06;100822.38;;;20.11;83.62
76321;BME280;65132;52.088;5.402;2023-09-19T11:55:36;100823.63;;;20.02;79.56
76321;BME280;65132;52.088;5.402;2023-09-19T11:58:10;100797.56;;;20.39;78.36
76321;BME280;65132;52.088;5.402;2023-09-19T12:00:37;100811.84;;;20.15;80.42
76321;BME280;65132;52.088;5.402;2023-09-19T12:03:08;100802.81;;;19.80;81.36
76321;BME280;65132;52.088;5.402;2023-09-19T12:05:35;100822.69;;;19.82;79.81
76321;BME280;65132;52.088;5.402;2023-09-19T12:08:09;100823.22;;;19.58;83.23
76321;BME280;65132;52.088;5.402;2023-09-19T12:10:50;100825.94;;;19.58;81.57
76321;BME280;65132;52.088;5.402;2023-09-19T12:13:22;100830.03;;;19.69;84.21
76321;BME280;65132;52.088;5.402;2023-09-19T12:15:51;100831.94;;;19.34;82.85
76321;BME280;65132;52.088;5.402;2023-09-19T12:18:30;100825.59;;;19.34;83.82
76321;BME280;65132;52.088;5.402;2023-09-19T12:20:56;100817.81;;;19.37;83.98
76321;BME280;65132;52.088;5.402;2023-09-19T12:23:23;100836.72;;;19.60;82.10
76321;BME280;65132;52.088;5.402;2023-09-19T12:25:51;100831.38;;;19.45;83.48
76321;BME280;65132;52.088;5.402;2023-09-19T12:28:27;100823.53;;;19.36;84.57
76321;BME280;65132;52.088;5.402;2023-09-19T12:30:54;100836.16;;;19.09;84.57
76321;BME280;65132;52.088;5.402;2023-09-19T12:33:21;100815.66;;;19.05;86.03
76321;BME280;65132;52.088;5.402;2023-09-19T12:35:51;100821.66;;;19.15;86.04
76321;BME280;65132;52.088;5.402;2023-09-19T12:38:25;100813.78;;;19.33;87.84
76321;BME280;65132;52.088;5.402;2023-09-19T12:40:52;100810.50;;;19.23;88.20
76321;BME280;65132;52.088;5.402;2023-09-19T12:43:21;100812.03;;;18.98;87.06
76321;BME280;65132;52.088;5.402;2023-09-19T12:45:49;100825.88;;;18.90;87.54
76321;BME280;65132;52.088;5.402;2023-09-19T12:48:23;100822.09;;;18.70;88.87
76321;BME280;65132;52.088;5.402;2023-09-19T12:51:15;100815.84;;;18.76;89.90
76321;BME280;65132;52.088;5.402;2023-09-19T12:53:46;100826.81;;;18.76;90.17
76321;BME280;65132;52.088;5.402;2023-09-19T12:56:15;100825.91;;;18.69;91.30
76321;BME280;65132;52.088;5.402;2023-09-19T12:58:58;100826.78;;;18.69;91.58
76321;BME280;65132;52.088;5.402;2023-09-19T13:01:28;100820.47;;;18.75;90.05
76321;BME280;65132;52.088;5.402;2023-09-19T13:06:40;100825.53;;;18.99;91.36
76321;BME280;65132;52.088;5.402;2023-09-19T13:09:10;100831.47;;;19.03;90.59
76321;BME280;65132;52.088;5.402;2023-09-19T13:11:40;100819.84;;;19.01;89.35
76321;BME280;65132;52.088;5.402;2023-09-19T13:16:59;100818.66;;;18.82;90.72
76321;BME280;65132;52.088;5.402;2023-09-19T13:19:40;100820.69;;;18.74;93.08
76321;BME280;65132;52.088;5.402;2023-09-19T13:22:41;100825.97;;;18.75;91.51
76321;BME280;65132;52.088;5.402;2023-09-19T13:25:10;100829.81;;;18.60;93.21
76321;BME280;65132;52.088;5.402;2023-09-19T13:27:37;100837.13;;;18.53;93.99
76321;BME280;65132;52.088;5.402;2023-09-19T13:30:06;100826.06;;;18.61;93.44
76321;BME280;65132;52.088;5.402;2023-09-19T13:32:33;100820.53;;;18.82;92.84
76321;BME280;65132;52.088;5.402;2023-09-19T13:35:02;100829.72;;;18.95;92.72
76321;BME280;65132;52.088;5.402;2023-09-19T13:37:28;100806.75;;;18.96;92.79
76321;BME280;65132;52.088;5.402;2023-09-19T13:40:02;100809.41;;;18.90;92.47
76321;BME280;65132;52.088;5.402;2023-09-19T13:42:30;100811.66;;;19.07;92.22
76321;BME280;65132;52.088;5.402;2023-09-19T13:44:58;100812.34;;;19.16;90.82
76321;BME280;65132;52.088;5.402;2023-09-19T13:47:25;100814.69;;;19.47;89.66
76321;BME280;65132;52.088;5.402;2023-09-19T13:49:52;100816.16;;;19.43;88.92
76321;BME280;65132;52.088;5.402;2023-09-19T13:52:20;100808.94;;;19.35;88.92